Geraldton Greenstone Regional Airport
CYGQ : now visible

Airfield :











YOU CAN JOIN US ON...

 
LOGIN :

Register | Disclaimer

   EN    FR    IT 

 









Legend :    VFR   Marginal VFR   IFR   Intensive IFR   Very Intensive IFR
Visi :
Ceiling :
>= 8 km
>= 3000ft
5 to 8 km
1000 to 3000 ft
1500m to 5 km
500 to 1000 ft
800 to 1500m
200 to 500 ft
< 800m
< 200 ft
Symbols :   Thunderstorms  Fog  Heavy snow  Heavy precipitations  Wind > 20 kt






- Airport Elevation : 1144 ft
- IATA code : YGQ


CYGQ - Geraldton Greenstone Regional

CURRENT METAR :
  • 311100Z 23003KT 15SM FEW048 FEW100 05/04 A3010 RMK SC1AC1 SC TR SLP208

EXPIRED METARs :
  • 311000Z 22003KT 15SM FEW045 SCT090 03/02 A3010 RMK SC2AC2 SLP209
  • 310900Z 24003KT 15SM SCT043 BKN090 BKN120 04/03 A3010 RMK SC3AC2AC1 SLP206

TAF TAF CYGQ
Valid from the 31 at 08:00 until the 31 at 20:00 UTC


310730Z 3108/3120 VRB03KT P6SM SCT050 BKN100 OVC130
TEMPO 3108/3110 P6SM -RA BKN050
BECMG 3110/3112 FEW050 SCT100 BKN130
FM311500 29012KT P6SM SCT050 RMK NXT FCST BY 311400Z
CZWG FIR / North America



MET'MAP, your aeronautical weather chart ! - Copyright ORBIFLY December 2007 - Disclaimer

ORBIFLY MET'MAP TEAM :

Programming & Development : Alexandra Zaïnal
Concept & original design : Baudouin d'Aumeries
Assistance for programming : Marc-Olivier Méhu
Technical & hardware support : Manuel Goepfert

Contact : metmap@orbifly.com




SOURCES & CREDITS :

   NOAA       Earth
Advisory